Historyczne dane pomiarowe

Dodano dane terminowe – wersja testowa.

Dane z okresu 1951-2019

Wersja bazy: 1.34 [2019-03-16, lista zmian], aktualizacja planowana na 2019-04-15

Dane meteo z obszaru Polski uzyskane na podstawie danych udostępnionych przez Instytut Meteorologii i Gospodarki Wodnej – Państwowy Instytut Badawczy.

 

Wybierz Datę:    

       

TemperaturaWilgotnośćWiatrCiśnienieOpadyŚniegCzas trwania zjawisk
 Stacja t tx tn tng RH VA  wxwx mslp ppp RRR   cm mm wxwxwxwxwxwxwx
1994-08-14 14.2 19.2 10.7 10.1 58.8- 4.7 2.7---- 0.0------------
1994-08-13 15.3 20.3 12.1 12.1 81.0- 6.3 1.0---- 2.8------------
1994-08-12 14.3 17.0 11.8 11.7 87.0- 7.0 2.0---- 2.4------------
1994-08-11 16.6 22.6 14.6 13.5 91.5- 6.7 1.3---- 10.3------------
1994-08-10 17.4 24.9 10.3 10.2 74.3- 0.7 0.7---- 0.0------------
1994-08-09 17.2 21.2 15.6 14.3 95.8- 8.0 0.7---- 9.6------------
1994-08-08 21.7 29.2 16.9 14.4 74.5- 7.0 2.0---- 0.2------------
1994-08-07 23.0 30.1 18.7 15.1 67.0- 6.0 0.3---- 0.0------------
1994-08-06 23.5 31.2 16.8 15.9 51.0- 1.3 1.3---- 0.0------------
1994-08-05 21.1 28.6 13.6 11.9 66.0- 0.7 1.0---- 0.0------------
1994-08-04 20.0 26.7 14.6 14.0 72.8- 5.0 0.3---- 0.7------------
1994-08-03 23.6 30.1 16.9 13.7 72.0- 7.0 2.3---- 12.1------------
1994-08-02 25.0 33.1 16.7 12.2 59.8- 3.3 0.7---- 0.0------------
1994-08-01 28.0 34.8 20.6 14.3 53.5- 3.3 0.3---- 0.0------------
1994-07-31 26.4 32.7 17.6 14.7 52.5- 0.0 1.7---- 0.0------------
1994-07-30 25.1 34.1 14.9 10.6 51.5- 0.3 0.7---- 0.0------------
1994-07-29 24.8 33.9 15.1 9.6 52.0- 0.3 0.7---- 0.0------------
1994-07-28 23.2 33.6 15.0 10.9 54.0- 1.0 0.0---- 0.0------------
1994-07-27 23.3 33.4 14.9 10.4 54.3- 1.0 0.0---- 0.0------------
1994-07-26 23.7 33.1 14.8 10.8 59.8- 1.0 0.3---- 0.0------------
1994-07-25 23.1 31.8 15.8 11.1 61.0- 2.7 0.7---- 0.0------------
1994-07-24 22.1 30.0 13.1 8.8 56.5- 1.0 0.7---- 0.0------------
1994-07-23 20.3 28.1 11.6 7.1 59.3- 1.3 0.7---- 0.0------------
1994-07-22 20.4 28.9 9.9 5.9 55.0- 0.3 0.3---- 0.0------------
1994-07-21 17.8 26.1 8.4 5.1 63.5- 0.3 0.7---- 0.0------------
1994-07-20 16.9 23.2 9.9 7.1 68.8- 2.0 0.3---- 0.0------------
1994-07-19 18.4 24.0 13.3 10.5 77.3- 8.0 0.7---- 0.0------------
1994-07-18 20.5 27.2 16.7 15.1 81.3- 5.3 0.7---- 0.0------------
1994-07-17 20.6 28.1 13.9 11.5 79.0- 6.3 0.7---- 0.7------------
1994-07-16 21.0 28.9 13.8 11.7 72.8- 4.0 0.3---- 0.0------------
1994-07-15 19.4 26.1 11.7 10.0 75.5- 3.3 1.3---- 0.0------------
1994-07-14 19.6 27.2 12.6 10.2 73.8- 5.0 1.0---- 0.0------------
1994-07-13 18.8 25.1 10.6 8.6 72.0- 4.3 0.7---- 0.0------------
1994-07-12 19.2 24.0 14.9 14.0 77.5- 7.3 1.0---- 0.0------------
1994-07-11 16.4 21.7 11.3 9.9 83.5- 5.0 0.7---- 0.2------------
1994-07-10 13.8 19.2 10.4 10.4 88.8- 7.3 0.7---- 2.1------------
1994-07-09 13.5 17.9 9.8 7.1 80.3- 7.7 2.3---- 9.3------------
1994-07-08 16.2 20.2 12.6 12.4 72.0- 5.0 2.0---- 0.0------------
1994-07-07 17.1 25.2 9.9 6.6 77.3- 7.0 1.0---- 8.7------------
1994-07-06 19.3 25.3 12.3 9.1 63.3- 1.3 1.3---- 0.0------------
1994-07-05 20.8 27.1 13.9 8.4 67.5- 6.0 0.7---- 2.1------------
1994-07-04 21.0 29.8 10.6 5.2 63.5- 3.7 0.7---- 0.0------------
1994-07-03 19.2 26.4 9.6 4.4 61.8- 0.3 0.7---- 0.0------------
1994-07-02 17.3 25.1 8.7 4.8 67.8- 0.3 0.3---- 0.0------------
1994-07-01 19.5 23.8 14.7 14.7 64.8- 4.0 1.0---- 0.0------------
1994-06-30 21.1 26.1 17.8 14.8 83.8- 5.3 1.3---- 1.1------------
1994-06-29 22.5 29.1 15.8 12.0 74.0- 2.7 0.7---- 0.0------------
1994-06-28 23.3 30.0 16.9 13.4 75.0- 1.3 0.7---- 0.0------------
1994-06-27 24.7 32.3 17.9 13.9 68.8- 4.0 1.3---- 0.0------------
1994-06-26 21.4 30.0 12.9 7.3 55.3- 0.7 2.3---- 0.0------------
1994-06-25 15.6 22.1 3.8 0.2 55.0- 0.0 1.0---- 0.0------------
1994-06-24 15.0 20.3 7.7 2.3 51.0- 0.7 3.3---- 0.0------------
1994-06-23 17.7 22.6 14.6 12.1 59.0- 4.0 5.7---- 0.0------------
1994-06-22 17.8 25.6 7.8 4.8 64.3- 4.3 1.3---- 0.1------------
1994-06-21 15.5 21.3 7.4 4.1 67.8- 2.0 0.7---- 0.0------------
1994-06-20 16.9 24.0 10.6 6.4 69.5- 4.0 2.7---- 0.0------------
1994-06-19 17.2 25.2 9.9 9.8 62.8- 4.3 3.3---- 0.0------------
1994-06-18 11.4 19.3 3.7 2.1 65.3- 5.7 2.0---- 6.7------------
1994-06-17 10.1 13.6 6.6 6.4 70.8- 6.7 3.3---- 0.0------------
1994-06-16 11.4 15.6 5.6 3.7 66.3- 6.3 3.0---- 0.5------------
260.0 ms

 

Źródłem pochodzenia danych jest Instytut Meteorologii i Gospodarki Wodnej – Państwowy Instytut Badawczy. Dane Instytutu Meteorologii i Gospodarki Wodnej – Państwowego Instytutu Badawczego zostały przetworzone.

Dane źródłowe można odnaleźć na stronie https://dane.imgw.pl